CheckWX is a tool to help pilots better visualize weather data.  It is not intended as a substitute for an official pre-flight weather briefing.

02:14:46 UTC

3S8 METAR
Grants Pass Airport
Grants Pass, Oregon, USA
Current

20 mins ago

K3S8 190155Z AUTO 00000KT 10SM SCT038 BKN043 OVC049 15/14 A2997 RMK AO2 P0002
Observed
Sep-19 @ 01:55 UTC
Visibility
10 SM
Flight Rules
VFR
Cloud Levels
  • Scattered at 3,800' AGL
  • Broken at 4,300' AGL
  • Overcast at 4,900' AGL
Temperature
15°C / 59°F
Dewpoint
14°C / 57°F
Humidity
94%
Altimeter
29.97" Hg
Pressure
1014.92 hPa
Current Rain
0.02"
Previous

40 mins ago

K3S8 190135Z AUTO 00000KT 10SM FEW015 SCT032 BKN045 15/14 A2996 RMK AO2
Observed
Sep-19 @ 01:35 UTC
Visibility
10 SM
Flight Rules
VFR
Cloud Levels
  • Few at 1,500' AGL
  • Scattered at 3,200' AGL
  • Broken at 4,500' AGL
Temperature
15°C / 59°F
Dewpoint
14°C / 57°F
Humidity
94%
Altimeter
29.96" Hg
Pressure
1014.52 hPa
Previous

60 mins ago

K3S8 190115Z AUTO 00000KT 5SM VCTS HZ FEW029 BKN037 OVC080 16/13 A2996 RMK AO2 LTG DSNT NE
Observed
Sep-19 @ 01:15 UTC
Visibility
5 SM
Flight Rules
MVFR
Conditions
Area Thunderstorm, Haze
Cloud Levels
  • Few at 2,900' AGL
  • Broken at 3,700' AGL
  • Overcast at 8,000' AGL
Temperature
16°C / 61°F
Dewpoint
13°C / 55°F
Humidity
83%
Altimeter
29.96" Hg
Pressure
1014.52 hPa